C75 weather

Public forecast

Using degrees Fahrenheit for public forecast. Weather courtesy of forecast.io.

Current aviation weather report (METAR) for Marshall County Airport

Retrieved 2020/08/14 19:35 UTC (10 minutes ago):

KC75 141935Z AUTO 08005KT 10SM SCT046 29/19 A2999 RMK AO2 T02910185

Closest aviation forecast (TAF) to Marshall County Airport

Closest forecast is General Wayne A. Downing Peoria International Airport, 25.5 nm (47.2 km) SSW. Retrieved 2020/08/14 18:27 UTC (1 hour ago):

TAF KPIA 141725Z 1418/1518 08005KT P6SM FEW040 FM150000 VRB02KT P6SM FEW250 FM150900 VRB02KT 5SM BR FEW250 FM151400 VRB05KT P6SM BKN035